createdAt,value
2022-12-18T00:01:25.798Z,50.78
2022-12-18T00:03:53.859Z,50.97
2022-12-18T00:06:23.503Z,54.15
2022-12-18T00:08:50.665Z,47.15
2022-12-18T00:11:20.614Z,51.38
2022-12-18T00:13:48.153Z,60.78
2022-12-18T00:16:19.534Z,54.83
2022-12-18T00:18:46.428Z,56.03
2022-12-18T00:21:14.221Z,55.58
2022-12-18T00:23:43.615Z,52.97
2022-12-18T00:26:26.173Z,58.78
2022-12-18T00:29:00.522Z,48.87
2022-12-18T00:31:28.036Z,53.13
2022-12-18T00:33:57.790Z,48.78
2022-12-18T00:36:26.877Z,52.97
2022-12-18T00:38:56.121Z,44.78
2022-12-18T00:41:42.620Z,46.40
2022-12-18T00:44:12.703Z,54.38
2022-12-18T00:46:39.512Z,51.65
2022-12-18T00:49:06.541Z,54.22
2022-12-18T00:51:33.305Z,48.30
2022-12-18T00:54:00.180Z,42.23
2022-12-18T00:56:27.034Z,51.45
2022-12-18T00:58:54.410Z,51.00
2022-12-18T01:01:21.309Z,46.67
2022-12-18T01:03:48.681Z,54.97
2022-12-18T01:06:17.840Z,52.07
2022-12-18T01:08:45.530Z,50.10
2022-12-18T01:11:19.008Z,53.60
2022-12-18T01:13:46.428Z,50.00
2022-12-18T01:16:17.921Z,52.38
2022-12-18T01:18:44.850Z,52.80
2022-12-18T01:21:18.064Z,53.85
2022-12-18T01:23:44.810Z,54.85
2022-12-18T01:26:17.081Z,46.85
2022-12-18T01:28:44.913Z,48.08
2022-12-18T01:31:23.807Z,52.90
2022-12-18T01:33:52.298Z,48.13
2022-12-18T01:36:25.456Z,42.30
2022-12-18T01:38:52.709Z,45.75
2022-12-18T01:41:23.241Z,47.13
2022-12-18T01:43:57.884Z,49.60
2022-12-18T01:46:25.956Z,52.83
2022-12-18T01:49:01.983Z,59.47
2022-12-18T01:51:31.505Z,57.78
2022-12-18T01:54:00.092Z,55.90
2022-12-18T01:56:26.956Z,60.70
2022-12-18T01:59:04.283Z,53.95
2022-12-18T02:01:33.386Z,57.10
2022-12-18T02:04:26.329Z,56.38
2022-12-18T02:07:23.825Z,59.95
2022-12-18T02:09:58.769Z,57.17
2022-12-18T02:12:34.398Z,48.67
2022-12-18T02:15:21.896Z,47.30
2022-12-18T02:17:57.807Z,54.38
2022-12-18T02:20:49.601Z,50.05
2022-12-18T02:23:42.813Z,53.60
2022-12-18T02:26:19.803Z,50.70
2022-12-18T02:29:09.470Z,51.08
2022-12-18T02:31:43.682Z,43.90
2022-12-18T02:34:12.643Z,53.35
2022-12-18T02:36:43.438Z,48.63
2022-12-18T02:39:14.485Z,46.40
2022-12-18T02:41:50.391Z,47.35
2022-12-18T02:44:19.340Z,50.30
2022-12-18T02:46:50.719Z,54.95
2022-12-18T02:49:56.651Z,48.70
2022-12-18T02:52:51.415Z,48.90
2022-12-18T02:55:21.904Z,44.92
2022-12-18T02:58:03.406Z,44.28
2022-12-18T03:00:41.958Z,49.13
2022-12-18T03:03:20.079Z,52.23
2022-12-18T03:05:53.506Z,50.88
2022-12-18T03:08:25.339Z,48.67
2022-12-18T03:11:05.928Z,52.22
2022-12-18T03:13:51.780Z,49.17
2022-12-18T03:16:28.572Z,52.40
2022-12-18T03:19:27.036Z,47.13
2022-12-18T03:22:00.926Z,46.03
2022-12-18T03:24:34.154Z,47.13
2022-12-18T03:27:08.546Z,44.92
2022-12-18T03:29:41.868Z,51.67
2022-12-18T03:32:27.174Z,48.35
2022-12-18T03:34:58.521Z,48.65
2022-12-18T03:37:29.049Z,42.72
2022-12-18T03:39:55.898Z,42.08
2022-12-18T03:42:34.950Z,44.97
2022-12-18T03:45:10.748Z,46.90
2022-12-18T03:47:53.903Z,37.55
2022-12-18T03:50:46.244Z,37.92
2022-12-18T03:53:19.562Z,34.65
2022-12-18T03:55:50.403Z,38.27
2022-12-18T03:58:21.764Z,30.77
2022-12-18T04:01:00.711Z,31.58
2022-12-18T04:03:29.842Z,34.15
2022-12-18T04:06:01.169Z,29.00
2022-12-18T04:08:29.850Z,30.87
2022-12-18T04:11:04.461Z,43.63
2022-12-18T04:13:36.897Z,51.20
2022-12-18T04:16:08.111Z,44.67
2022-12-18T04:18:35.239Z,79.32
2022-12-18T04:21:02.927Z,64.40
2022-12-18T04:23:29.881Z,53.63
2022-12-18T04:25:58.905Z,58.47
2022-12-18T04:28:42.565Z,42.60
2022-12-18T04:31:09.870Z,45.15
2022-12-18T04:33:37.992Z,43.10
2022-12-18T04:36:06.345Z,49.08
2022-12-18T04:38:33.735Z,42.13
2022-12-18T04:41:06.457Z,38.30
2022-12-18T04:43:34.040Z,41.72
2022-12-18T04:46:05.736Z,34.47
2022-12-18T04:48:33.054Z,35.88
2022-12-18T04:51:00.009Z,39.70
2022-12-18T04:53:27.206Z,38.40
2022-12-18T04:56:11.838Z,42.55
2022-12-18T04:58:40.579Z,34.10
2022-12-18T05:01:08.624Z,32.40
2022-12-18T05:03:36.416Z,36.75
2022-12-18T05:06:03.953Z,34.63
2022-12-18T05:08:31.013Z,35.40
2022-12-18T05:11:09.887Z,34.70
2022-12-18T05:13:37.725Z,29.45
2022-12-18T05:16:05.982Z,44.13
2022-12-18T05:18:32.805Z,42.55
2022-12-18T05:20:59.643Z,49.30
2022-12-18T05:23:26.495Z,56.03
2022-12-18T05:25:58.811Z,64.70
2022-12-18T05:28:27.248Z,68.07
2022-12-18T05:30:56.723Z,64.22
2022-12-18T05:33:25.675Z,53.90
2022-12-18T05:35:57.360Z,52.23
2022-12-18T05:38:26.333Z,44.45
2022-12-18T05:40:53.956Z,46.80
2022-12-18T05:43:25.189Z,35.72
2022-12-18T05:45:53.653Z,38.72
2022-12-18T05:48:21.308Z,40.83
2022-12-18T05:50:49.183Z,47.90
2022-12-18T05:53:18.396Z,54.35
2022-12-18T05:55:46.225Z,42.75
2022-12-18T05:58:13.973Z,46.95
2022-12-18T06:00:44.094Z,47.27
2022-12-18T06:03:11.910Z,44.20
2022-12-18T06:05:45.955Z,49.58
2022-12-18T06:08:14.167Z,45.80
2022-12-18T06:10:41.946Z,48.40
2022-12-18T06:13:08.855Z,51.00
2022-12-18T06:15:38.193Z,36.40
2022-12-18T06:18:05.239Z,37.92
2022-12-18T06:20:33.845Z,32.60
2022-12-18T06:23:01.048Z,37.53
2022-12-18T06:25:27.833Z,37.80
2022-12-18T06:27:54.603Z,38.53
2022-12-18T06:30:21.885Z,44.55
2022-12-18T06:32:56.337Z,37.33
2022-12-18T06:35:24.215Z,32.58
2022-12-18T06:37:51.123Z,64.50
2022-12-18T06:40:18.253Z,68.35
2022-12-18T06:42:44.936Z,53.45
2022-12-18T06:45:12.516Z,49.63
2022-12-18T06:47:39.454Z,48.35
2022-12-18T06:50:06.725Z,52.43
2022-12-18T06:52:34.547Z,53.80
2022-12-18T06:55:01.689Z,42.13
2022-12-18T06:57:28.539Z,36.10
2022-12-18T06:59:55.608Z,37.38
2022-12-18T07:02:22.447Z,46.70
2022-12-18T07:04:50.850Z,43.75
2022-12-18T07:07:17.989Z,44.72
2022-12-18T07:09:44.707Z,41.70
2022-12-18T07:12:11.461Z,48.88
2022-12-18T07:14:38.257Z,36.10
2022-12-18T07:17:05.091Z,32.97
2022-12-18T07:19:33.362Z,34.67
2022-12-18T07:22:00.389Z,34.83
2022-12-18T07:24:27.161Z,30.63
2022-12-18T07:26:54.050Z,34.90
2022-12-18T07:29:20.843Z,34.00
2022-12-18T07:31:47.705Z,36.28
2022-12-18T07:34:16.034Z,27.02
2022-12-18T07:36:43.026Z,30.75
2022-12-18T07:39:11.704Z,27.57
2022-12-18T07:41:41.308Z,29.50
2022-12-18T07:44:12.397Z,28.08
2022-12-18T07:46:39.709Z,24.95
2022-12-18T07:49:06.559Z,18.92
2022-12-18T07:51:33.377Z,29.40
2022-12-18T07:54:00.157Z,30.63
2022-12-18T07:56:28.701Z,33.15
2022-12-18T07:58:57.185Z,27.33
2022-12-18T08:01:24.242Z,25.45
2022-12-18T08:03:51.875Z,41.03
2022-12-18T08:06:22.417Z,38.55
2022-12-18T08:08:55.737Z,25.38
2022-12-18T08:11:24.023Z,24.35
2022-12-18T08:13:50.854Z,18.40
2022-12-18T08:16:18.633Z,23.30
2022-12-18T08:18:46.370Z,17.05
2022-12-18T08:21:16.075Z,17.33
2022-12-18T08:23:43.705Z,19.60
2022-12-18T08:26:12.488Z,26.63
2022-12-18T08:28:39.712Z,37.77
2022-12-18T08:31:07.629Z,41.97
2022-12-18T08:33:36.131Z,54.00
2022-12-18T08:36:04.926Z,49.53
2022-12-18T08:38:32.949Z,31.27
2022-12-18T08:41:05.740Z,27.70
2022-12-18T08:43:51.582Z,34.35
2022-12-18T08:46:20.013Z,21.48
2022-12-18T08:48:47.186Z,24.73
2022-12-18T08:51:16.651Z,21.88
2022-12-18T08:53:43.766Z,25.30
2022-12-18T08:56:10.787Z,30.08
2022-12-18T08:58:37.593Z,20.30
2022-12-18T09:01:06.349Z,19.98
2022-12-18T09:03:34.070Z,17.40
2022-12-18T09:06:00.833Z,15.87
2022-12-18T09:08:28.164Z,22.63
2022-12-18T09:10:55.342Z,16.45
2022-12-18T09:13:22.604Z,18.95
2022-12-18T09:15:51.546Z,19.83
2022-12-18T09:18:20.533Z,17.77
2022-12-18T09:20:47.814Z,16.27
2022-12-18T09:23:14.854Z,19.40
2022-12-18T09:25:41.804Z,21.00
2022-12-18T09:28:14.545Z,18.83
2022-12-18T09:30:48.599Z,16.73
2022-12-18T09:33:17.627Z,21.30
2022-12-18T09:35:45.655Z,18.98
2022-12-18T09:38:15.336Z,18.20
2022-12-18T09:40:48.399Z,24.95
2022-12-18T09:43:38.341Z,22.63
2022-12-18T09:46:10.021Z,21.85
2022-12-18T09:48:41.770Z,28.73
2022-12-18T09:51:23.737Z,27.20
2022-12-18T09:54:04.677Z,23.88
2022-12-18T09:56:37.934Z,22.77
2022-12-18T09:59:05.945Z,25.92
2022-12-18T10:01:43.234Z,23.75
2022-12-18T10:04:11.579Z,28.98
2022-12-18T10:06:55.321Z,23.67
2022-12-18T10:09:58.810Z,21.03
2022-12-18T10:13:04.925Z,29.42
2022-12-18T10:15:31.984Z,22.90
2022-12-18T10:18:21.577Z,16.60
2022-12-18T10:20:53.479Z,39.00
2022-12-18T10:24:03.061Z,29.30
2022-12-18T10:26:29.850Z,17.55
2022-12-18T10:29:05.253Z,23.33
2022-12-18T10:31:32.717Z,37.90
2022-12-18T10:33:59.507Z,28.25
2022-12-18T10:36:26.358Z,29.97
2022-12-18T10:38:53.255Z,22.25
2022-12-18T10:41:21.773Z,33.35
2022-12-18T10:43:48.899Z,30.05
2022-12-18T10:46:20.484Z,24.73
2022-12-18T10:48:54.746Z,32.00
2022-12-18T10:51:32.442Z,23.58
2022-12-18T10:54:06.447Z,30.88
2022-12-18T10:56:36.730Z,22.58
2022-12-18T10:59:09.150Z,22.30
2022-12-18T11:01:58.360Z,29.43
2022-12-18T11:04:31.412Z,23.05
2022-12-18T11:07:06.768Z,22.15
2022-12-18T11:09:42.451Z,18.20
2022-12-18T11:12:19.292Z,26.35
2022-12-18T11:14:52.399Z,31.27
2022-12-18T11:17:30.804Z,19.30
2022-12-18T11:20:20.193Z,24.20
2022-12-18T11:23:06.653Z,23.55
2022-12-18T11:25:35.978Z,27.30
2022-12-18T11:28:26.597Z,22.90
2022-12-18T11:31:23.752Z,30.00
2022-12-18T11:34:26.675Z,23.25
2022-12-18T11:36:47.582Z,21.33
2022-12-18T11:39:22.683Z,23.92
2022-12-18T11:42:12.884Z,24.63
2022-12-18T11:45:03.405Z,20.42
2022-12-18T11:47:41.696Z,24.95
2022-12-18T11:50:18.430Z,18.23
2022-12-18T11:52:45.873Z,23.92
2022-12-18T11:55:16.798Z,22.70
2022-12-18T11:58:31.830Z,17.48
2022-12-18T12:01:24.619Z,20.77
2022-12-18T12:04:00.630Z,22.10
2022-12-18T12:07:03.343Z,18.17
2022-12-18T12:09:51.102Z,19.83
2022-12-18T12:12:49.365Z,20.58
2022-12-18T12:15:45.381Z,20.55
2022-12-18T12:18:38.649Z,26.30
2022-12-18T12:21:14.255Z,26.92
2022-12-18T12:24:05.109Z,23.37
2022-12-18T12:26:50.434Z,34.83
2022-12-18T12:29:42.981Z,35.85
2022-12-18T12:32:12.612Z,25.30
2022-12-18T12:35:07.777Z,25.45
2022-12-18T12:37:58.141Z,32.37
2022-12-18T12:43:29.400Z,23.85
2022-12-18T12:46:07.934Z,33.80
2022-12-18T12:48:56.834Z,31.65
2022-12-18T12:51:34.968Z,25.77
2022-12-18T12:54:04.667Z,34.20
2022-12-18T12:56:45.862Z,34.50
2022-12-18T12:59:32.732Z,38.83
2022-12-18T13:02:07.901Z,43.47
2022-12-18T13:04:43.477Z,27.67
2022-12-18T13:07:39.389Z,36.00
2022-12-18T13:10:26.847Z,38.65
2022-12-18T13:13:08.152Z,32.30
2022-12-18T13:15:51.306Z,34.30
2022-12-18T13:18:23.669Z,34.67
2022-12-18T13:21:10.874Z,34.95
2022-12-18T13:23:39.127Z,33.58
2022-12-18T13:26:10.778Z,30.42
2022-12-18T13:28:49.358Z,27.40
2022-12-18T13:31:42.605Z,42.37
2022-12-18T13:34:27.729Z,20.15
2022-12-18T13:36:57.602Z,31.33
2022-12-18T13:39:34.789Z,30.60
2022-12-18T13:42:08.930Z,35.40
2022-12-18T13:44:40.685Z,34.43
2022-12-18T13:47:26.770Z,43.35
2022-12-18T13:49:53.922Z,33.30
2022-12-18T13:52:35.870Z,26.45
2022-12-18T13:55:06.285Z,31.60
2022-12-18T13:57:36.075Z,36.80
2022-12-18T14:00:37.191Z,43.20
2022-12-18T14:03:22.033Z,54.10
2022-12-18T14:06:03.523Z,31.10
2022-12-18T14:08:37.838Z,44.72
2022-12-18T14:11:06.586Z,51.23
2022-12-18T14:13:42.460Z,46.40
2022-12-18T14:16:15.300Z,35.20
2022-12-18T14:18:58.761Z,38.38
2022-12-18T14:21:38.902Z,32.03
2022-12-18T14:24:16.809Z,34.43
2022-12-18T14:26:47.406Z,41.33
2022-12-18T14:29:32.018Z,43.40
2022-12-18T14:32:17.547Z,34.53
2022-12-18T14:34:49.494Z,46.92
2022-12-18T14:37:19.078Z,43.80
2022-12-18T14:40:11.066Z,34.70
2022-12-18T14:42:38.479Z,34.95
2022-12-18T14:45:41.057Z,41.10
2022-12-18T14:48:16.319Z,49.75
2022-12-18T14:51:05.307Z,36.17
2022-12-18T14:53:42.016Z,48.60
2022-12-18T14:56:18.298Z,30.35
2022-12-18T14:58:47.645Z,31.40
2022-12-18T15:01:29.775Z,39.35
2022-12-18T15:03:58.172Z,45.27
2022-12-18T15:06:38.108Z,36.63
2022-12-18T15:09:22.089Z,40.92
2022-12-18T15:11:48.993Z,24.63
2022-12-18T15:14:42.682Z,28.08
2022-12-18T15:17:35.920Z,35.07
2022-12-18T15:20:10.444Z,31.45
2022-12-18T15:22:38.707Z,44.28
2022-12-18T15:25:35.155Z,47.35
2022-12-18T15:28:02.076Z,40.53
2022-12-18T15:30:29.328Z,35.53
2022-12-18T15:33:23.564Z,30.15
2022-12-18T15:35:58.245Z,42.45
2022-12-18T15:38:27.025Z,30.58
2022-12-18T15:40:55.011Z,42.20
2022-12-18T15:43:44.397Z,40.60
2022-12-18T15:46:19.770Z,32.90
2022-12-18T15:48:52.251Z,36.15
2022-12-18T15:51:24.681Z,42.70
2022-12-18T15:53:55.228Z,40.80
2022-12-18T15:56:41.162Z,29.00
2022-12-18T15:59:16.466Z,43.97
2022-12-18T16:01:45.759Z,31.85
2022-12-18T16:04:14.514Z,34.83
2022-12-18T16:07:12.634Z,47.78
2022-12-18T16:09:28.868Z,46.17
2022-12-18T16:11:55.588Z,33.35
2022-12-18T16:14:29.684Z,32.42
2022-12-18T16:16:59.310Z,38.25
2022-12-18T16:19:26.757Z,32.78
2022-12-18T16:21:56.009Z,48.03
2022-12-18T16:24:24.973Z,52.38
2022-12-18T16:26:52.982Z,35.40
2022-12-18T16:29:28.283Z,52.30
2022-12-18T16:31:56.412Z,35.92
2022-12-18T16:34:30.005Z,35.80
2022-12-18T16:37:06.038Z,38.83
2022-12-18T16:39:36.841Z,29.15
2022-12-18T16:42:06.658Z,46.63
2022-12-18T16:44:36.933Z,47.60
2022-12-18T16:47:04.693Z,39.70
2022-12-18T16:49:32.017Z,36.55
2022-12-18T16:52:00.264Z,43.30
2022-12-18T16:54:30.597Z,38.95
2022-12-18T16:56:58.037Z,35.15
2022-12-18T16:59:28.193Z,47.67
2022-12-18T17:01:57.294Z,45.75
2022-12-18T17:04:25.592Z,42.83
2022-12-18T17:06:53.951Z,48.85
2022-12-18T17:09:31.118Z,37.88
2022-12-18T17:12:04.399Z,35.57
2022-12-18T17:14:33.049Z,40.95
2022-12-18T17:19:52.261Z,19.83
2022-12-18T17:22:20.465Z,33.13
2022-12-18T17:24:47.605Z,51.00
2022-12-18T17:27:17.658Z,35.50
2022-12-18T17:29:47.750Z,36.08
2022-12-18T17:32:17.622Z,24.92
2022-12-18T17:34:46.078Z,39.05
2022-12-18T17:37:13.121Z,32.90
2022-12-18T17:39:41.387Z,32.83
2022-12-18T17:42:15.347Z,51.42
2022-12-18T17:44:46.330Z,35.22
2022-12-18T17:47:28.189Z,30.60
2022-12-18T17:49:56.899Z,24.83
2022-12-18T17:52:24.366Z,54.33
2022-12-18T17:54:57.234Z,35.85
2022-12-18T17:57:26.513Z,38.08
2022-12-18T17:59:53.387Z,43.20
2022-12-18T18:02:20.703Z,49.83
2022-12-18T18:04:48.651Z,34.78
2022-12-18T18:07:15.559Z,41.65
2022-12-18T18:09:42.470Z,27.95
2022-12-18T18:12:27.997Z,35.97
2022-12-18T18:14:54.925Z,35.20
2022-12-18T18:17:21.818Z,47.22
2022-12-18T18:19:49.637Z,33.03
2022-12-18T18:22:16.726Z,28.95
2022-12-18T18:24:44.738Z,38.15
2022-12-18T18:27:13.139Z,42.97
2022-12-18T18:29:40.231Z,31.90
2022-12-18T18:32:07.383Z,40.00
2022-12-18T18:34:34.334Z,29.27
2022-12-18T18:37:02.132Z,43.33
2022-12-18T18:39:29.831Z,32.33
2022-12-18T18:41:56.622Z,40.53
2022-12-18T18:44:25.628Z,37.63
2022-12-18T18:46:56.944Z,32.53
2022-12-18T18:49:27.102Z,35.38
2022-12-18T18:51:54.956Z,32.30
2022-12-18T18:54:21.965Z,31.52
2022-12-18T18:59:36.531Z,32.25
2022-12-18T19:02:04.062Z,32.47
2022-12-18T19:04:32.384Z,33.30
2022-12-18T19:06:59.179Z,36.65
2022-12-18T19:09:26.418Z,43.80
2022-12-18T19:12:12.158Z,32.33
2022-12-18T19:14:38.883Z,42.35
2022-12-18T19:17:05.673Z,40.57
2022-12-18T19:19:32.691Z,46.83
2022-12-18T19:21:59.744Z,44.60
2022-12-18T19:24:26.533Z,28.83
2022-12-18T19:26:56.830Z,47.50
2022-12-18T19:29:25.122Z,36.17
2022-12-18T19:31:52.005Z,34.08
2022-12-18T19:34:19.005Z,28.48
2022-12-18T19:36:46.531Z,32.72
2022-12-18T19:39:16.401Z,36.03
2022-12-18T19:41:43.641Z,44.80
2022-12-18T19:44:12.630Z,39.80
2022-12-18T19:46:41.964Z,37.60
2022-12-18T19:49:16.275Z,45.60
2022-12-18T19:51:45.324Z,48.00
2022-12-18T19:54:16.677Z,41.87
2022-12-18T19:56:45.336Z,49.67
2022-12-18T19:59:12.531Z,49.95
2022-12-18T20:01:39.787Z,37.70
2022-12-18T20:04:07.011Z,58.80
2022-12-18T20:06:45.307Z,87.23
2022-12-18T20:09:12.244Z,85.03
2022-12-18T20:11:41.481Z,51.65
2022-12-18T20:14:13.624Z,60.28
2022-12-18T20:16:41.088Z,54.22
2022-12-18T20:19:08.678Z,58.07
2022-12-18T20:21:36.445Z,52.17
2022-12-18T20:24:03.649Z,54.72
2022-12-18T20:26:30.594Z,53.75
2022-12-18T20:28:57.345Z,50.60
2022-12-18T20:31:24.808Z,44.23
2022-12-18T20:33:52.152Z,50.60
2022-12-18T20:36:23.583Z,48.15
2022-12-18T20:38:54.669Z,52.55
2022-12-18T20:41:24.539Z,49.13
2022-12-18T20:43:51.701Z,52.60
2022-12-18T20:46:18.966Z,52.03
2022-12-18T20:48:45.932Z,52.50
2022-12-18T20:51:18.066Z,50.63
2022-12-18T20:53:46.551Z,61.33
2022-12-18T20:56:21.141Z,44.47
2022-12-18T20:58:51.781Z,47.35
2022-12-18T21:01:22.854Z,53.47
2022-12-18T21:03:50.846Z,45.25
2022-12-18T21:06:19.777Z,55.40
2022-12-18T21:08:47.112Z,46.73
2022-12-18T21:11:38.815Z,47.47
2022-12-18T21:14:21.042Z,51.17
2022-12-18T21:16:48.118Z,49.20
2022-12-18T21:19:17.933Z,43.00
2022-12-18T21:21:45.864Z,53.33
2022-12-18T21:24:13.191Z,56.33
2022-12-18T21:26:45.088Z,43.03
2022-12-18T21:29:24.956Z,49.20
2022-12-18T21:31:54.126Z,44.35
2022-12-18T21:34:25.445Z,45.93
2022-12-18T21:36:52.938Z,44.28
2022-12-18T21:39:20.323Z,51.17
2022-12-18T21:42:08.512Z,48.50
2022-12-18T21:44:40.869Z,48.63
2022-12-18T21:47:22.326Z,40.10
2022-12-18T21:49:51.376Z,48.47
2022-12-18T21:52:18.331Z,46.67
2022-12-18T21:54:45.057Z,50.53
2022-12-18T21:57:13.433Z,54.40
2022-12-18T21:59:42.692Z,57.17
2022-12-18T22:02:18.136Z,48.42
2022-12-18T22:04:46.909Z,54.25
2022-12-18T22:07:15.661Z,49.22
2022-12-18T22:09:43.004Z,51.28
2022-12-18T22:12:12.716Z,55.23
2022-12-18T22:14:39.439Z,55.45
2022-12-18T22:17:06.286Z,48.85
2022-12-18T22:19:38.159Z,46.42
2022-12-18T22:22:09.610Z,46.97
2022-12-18T22:24:36.377Z,54.23
2022-12-18T22:27:03.182Z,48.78
2022-12-18T22:29:48.735Z,60.67
2022-12-18T22:32:30.566Z,47.55
2022-12-18T22:35:05.890Z,45.53
2022-12-18T22:37:34.145Z,48.77
2022-12-18T22:40:02.928Z,47.00
2022-12-18T22:42:31.074Z,47.17
2022-12-18T22:44:57.978Z,47.28
2022-12-18T22:47:29.403Z,47.80
2022-12-18T22:49:56.713Z,46.20
2022-12-18T22:52:23.847Z,46.78
2022-12-18T22:54:53.684Z,45.88
2022-12-18T22:57:22.232Z,43.17
2022-12-18T22:59:50.300Z,47.42
2022-12-18T23:02:18.189Z,48.63
2022-12-18T23:04:45.268Z,53.53
2022-12-18T23:07:12.593Z,49.55
2022-12-18T23:09:40.471Z,44.20
2022-12-18T23:12:09.685Z,46.55
2022-12-18T23:14:36.617Z,51.83
2022-12-18T23:17:03.436Z,48.75
2022-12-18T23:19:30.217Z,46.08
2022-12-18T23:21:58.784Z,52.70
2022-12-18T23:24:26.369Z,51.47
2022-12-18T23:26:53.293Z,48.40
2022-12-18T23:29:20.552Z,57.55
2022-12-18T23:31:47.423Z,50.35
2022-12-18T23:34:15.048Z,48.90
2022-12-18T23:36:46.380Z,47.28
2022-12-18T23:39:19.968Z,50.07
2022-12-18T23:41:58.388Z,53.08
2022-12-18T23:44:25.620Z,54.85
2022-12-18T23:46:52.804Z,47.47
2022-12-18T23:49:19.914Z,49.05
2022-12-18T23:51:46.662Z,48.77
2022-12-18T23:54:13.459Z,49.97
2022-12-18T23:56:40.276Z,49.95
2022-12-18T23:59:07.129Z,46.78
